Arethusa — 9HJR9 — position and weather

sailwx.info

Track history (hours):
 
Tides and Currents Weather Stations Pressure Air Temp Water Temp Dewpoint Dewpoint Depression Visibility Wind Speed Wind Dir Waves Ship Positions

Arethusa

Last reported at 2017-Oct-23 02:31 UTC. Time now 2017-Oct-23 02:49 UTC.
Position N 44°02' E 010°02'.

Length 60 m; draft 3 m.

Type: Passenger vessel. MMSI: 249069000.

Date/timePositionNaut miles runAvg speedWind from/ knotsBaromVisibWave heightAir tempDewpointWater temp
2017-Oct-23 02:31N 44°02' E 010°02'0 0.0
2017-Oct-23 02:00N 44°02' E 010°02'0 0.0
2017-Oct-23 01:30N 44°02' E 010°02'0 0.0
2017-Oct-23 01:00N 44°02' E 010°02'0 0.0
2017-Oct-23 00:30N 44°02' E 010°02'0 0.0
2017-Oct-23 00:01N 44°02' E 010°02'0 0.0
2017-Oct-22 23:30N 44°02' E 010°02'0 0.0
2017-Oct-22 23:00N 44°02' E 010°02'0 0.0
2017-Oct-22 22:30N 44°02' E 010°02'0 0.0
2017-Oct-22 22:01N 44°02' E 010°02'0 0.0
2017-Oct-22 21:31N 44°02' E 010°02'0 0.0
2017-Oct-22 21:01N 44°02' E 010°02'0 0.0
2017-Oct-22 20:30N 44°02' E 010°02'0 0.0
2017-Oct-22 20:01N 44°02' E 010°02'0 0.0
2017-Oct-22 19:31N 44°02' E 010°02'0 0.0
2017-Oct-22 19:01N 44°02' E 010°02'0 0.0
2017-Oct-22 18:30N 44°02' E 010°02'0 0.0
2017-Oct-22 18:01N 44°02' E 010°02'0 0.0
2017-Oct-22 17:30N 44°02' E 010°02'0 0.0
2017-Oct-22 17:01N 44°02' E 010°02'0 0.0
2017-Oct-22 16:31N 44°02' E 010°02'0 0.0
2017-Oct-22 16:01N 44°02' E 010°02'0 0.0
2017-Oct-22 15:30N 44°02' E 010°02'0 0.0
2017-Oct-22 15:01N 44°02' E 010°02'0 0.0
2017-Oct-22 14:30N 44°02' E 010°02'0 0.0
2017-Oct-22 14:01N 44°02' E 010°02'0 0.0
2017-Oct-22 13:31N 44°02' E 010°02'0 0.0
2017-Oct-22 13:00N 44°02' E 010°02'0 0.0
2017-Oct-22 12:30N 44°02' E 010°02'0 0.0
2017-Oct-22 12:00N 44°02' E 010°02'0 0.0
2017-Oct-22 11:31N 44°02' E 010°02'0 0.0
2017-Oct-22 11:01N 44°02' E 010°02'0 0.0
2017-Oct-22 10:30N 44°02' E 010°02'0 0.0
2017-Oct-22 09:57N 44°02' E 010°02'0 0.0
2017-Oct-22 09:31N 44°02' E 010°02'0 0.0
2017-Oct-22 09:01N 44°02' E 010°02'0 0.0
2017-Oct-22 08:31N 44°02' E 010°02'0 0.0
2017-Oct-22 08:00N 44°02' E 010°02'0 0.0
2017-Oct-22 07:31N 44°02' E 010°02'0 0.0
2017-Oct-22 07:00N 44°02' E 010°02'0 0.0
2017-Oct-22 06:30N 44°02' E 010°02'0 0.0
2017-Oct-22 06:01N 44°02' E 010°02'0 0.0
2017-Oct-22 05:31N 44°02' E 010°02'0 0.0
2017-Oct-22 05:00N 44°02' E 010°02'0 0.0
2017-Oct-22 04:30N 44°02' E 010°02'0 0.0
2017-Oct-22 04:01N 44°02' E 010°02'0 0.0
2017-Oct-22 03:31N 44°02' E 010°02'0 0.0
2017-Oct-22 02:58N 44°02' E 010°02'0 0.0
2017-Oct-22 02:30N 44°02' E 010°02'0 0.0
2017-Oct-22 02:01N 44°02' E 010°02'0 0.0
2017-Oct-22 01:31N 44°02' E 010°02'0 0.0
2017-Oct-22 01:00N 44°02' E 010°02'0 0.0
2017-Oct-22 00:31N 44°02' E 010°02'0 0.0
2017-Oct-22 00:00N 44°02' E 010°02'0 0.0
2017-Oct-21 23:31N 44°02' E 010°02'0 0.0
2017-Oct-21 23:00N 44°02' E 010°02'0 0.0
2017-Oct-21 22:30N 44°02' E 010°02'0 0.0
2017-Oct-21 22:01N 44°02' E 010°02'0 0.0
2017-Oct-21 21:31N 44°02' E 010°02'0 0.0
2017-Oct-21 21:00N 44°02' E 010°02'0 0.0
2017-Oct-21 20:31N 44°02' E 010°02'0 0.0
2017-Oct-21 20:00N 44°02' E 010°02'0 0.0
2017-Oct-21 19:31N 44°02' E 010°02'1 1.2
2017-Oct-21 19:01N 44°02' E 010°03'510.0
2017-Oct-21 18:31N 43°57' E 010°03'510.2
2017-Oct-21 18:00N 43°51' E 010°03'510.0
2017-Oct-21 17:30N 43°46' E 010°04'5 9.7
2017-Oct-21 17:01N 43°42' E 010°04'5 9.7
2017-Oct-21 16:31N 43°37' E 010°05'510.1
2017-Oct-21 16:01N 43°32' E 010°05'4 8.5
2017-Oct-21 15:29N 43°31' E 010°11'5 9.7
2017-Oct-21 15:01N 43°32' E 010°17'1 1.8
2017-Oct-21 14:27N 43°33' E 010°18'0 0.0
2017-Oct-21 13:30N 43°33' E 010°18'0 0.0
2017-Oct-21 13:00N 43°33' E 010°18'0 0.0
2017-Oct-21 12:30N 43°33' E 010°18'0 0.0
2017-Oct-21 12:00N 43°33' E 010°18'0 0.0
2017-Oct-21 11:30N 43°33' E 010°18'0 0.0
2017-Oct-21 11:00N 43°33' E 010°18'0 0.0
2017-Oct-21 10:30N 43°33' E 010°18'0 0.0
2017-Oct-21 10:00N 43°33' E 010°18'0 0.0
2017-Oct-21 09:30N 43°33' E 010°18'0 0.0
2017-Oct-21 09:00N 43°33' E 010°18'0 0.0
2017-Oct-21 08:30N 43°33' E 010°18'0 0.0
2017-Oct-21 08:00N 43°33' E 010°18'0 0.0
2017-Oct-21 07:30N 43°33' E 010°18'0 0.0
2017-Oct-21 07:00N 43°33' E 010°18'0 0.0
2017-Oct-21 06:30N 43°33' E 010°18'0 0.0
2017-Oct-21 06:00N 43°33' E 010°18'0 0.0
2017-Oct-21 05:30N 43°33' E 010°18'0 0.0
2017-Oct-21 05:00N 43°33' E 010°18'0 0.0
2017-Oct-21 04:30N 43°33' E 010°18'0 0.0
2017-Oct-21 03:57N 43°33' E 010°18'0 0.0
2017-Oct-21 03:30N 43°33' E 010°18'0 0.0
2017-Oct-21 03:00N 43°33' E 010°18'0 0.0
2017-Oct-21 02:30N 43°33' E 010°18'0 0.0
2017-Oct-21 02:00N 43°33' E 010°18'0 0.0
2017-Oct-21 01:30N 43°33' E 010°18'0 0.0
2017-Oct-21 01:00N 43°33' E 010°18'0 0.0
2017-Oct-21 00:30N 43°33' E 010°18'0 0.0
2017-Oct-20 23:57N 43°33' E 010°18'0 0.0
2017-Oct-20 23:27N 43°33' E 010°18'0 0.0
2017-Oct-20 23:00N 43°33' E 010°18'0 0.0
2017-Oct-20 22:30N 43°33' E 010°18'0 0.0
2017-Oct-20 22:00N 43°33' E 010°18'0 0.0
2017-Oct-20 21:30N 43°33' E 010°18'0 0.0
2017-Oct-20 20:48N 43°33' E 010°18'0 0.7
2017-Oct-20 20:31N 43°33' E 010°18'3 5.7
2017-Oct-20 20:00N 43°31' E 010°15'5 9.8
2017-Oct-20 19:30N 43°26' E 010°15'510.4
2017-Oct-20 19:00N 43°21' E 010°15'510.3
2017-Oct-20 18:30N 43°16' E 010°16'510.4
2017-Oct-20 18:00N 43°11' E 010°17'710.4
2017-Oct-20 17:19N 43°04' E 010°19'310.4
2017-Oct-20 17:00N 43°00' E 010°19'12 0.7
2017-Oct-20 00:12N 42°49' E 010°20'0 0.0
2017-Oct-19 23:45N 42°49' E 010°20'0 0.1
2017-Oct-19 23:18N 42°48' E 010°20'0 0.1
2017-Oct-19 23:00N 42°48' E 010°20'0 0.0
2017-Oct-19 22:30N 42°48' E 010°20'0 0.0
2017-Oct-19 22:00N 42°48' E 010°20'0 0.0
2017-Oct-19 21:27N 42°48' E 010°20'0 0.0
2017-Oct-19 20:53N 42°48' E 010°20'0 0.0
2017-Oct-19 20:28N 42°48' E 010°20'0 0.0
2017-Oct-19 19:46N 42°48' E 010°20'1 1.8
2017-Oct-19 19:26N 42°49' E 010°21'5 8.8
2017-Oct-19 18:53N 42°51' E 010°15'34 2.0
2017-Oct-19 01:33N 43°14' E 009°40'1 9.7
2017-Oct-19 01:30N 43°14' E 009°40'5 9.7
2017-Oct-19 01:00N 43°19' E 009°42'510.0
2017-Oct-19 00:30N 43°24' E 009°44'510.1
2017-Oct-19 00:00N 43°28' E 009°46'510.1
2017-Oct-18 23:30N 43°33' E 009°48'510.2
2017-Oct-18 23:00N 43°38' E 009°50'510.2
2017-Oct-18 22:30N 43°43' E 009°53'510.3
2017-Oct-18 22:00N 43°47' E 009°56'510.6
2017-Oct-18 21:30N 43°52' E 009°58'510.4
2017-Oct-18 21:00N 43°57' E 010°01'5 9.4
2017-Oct-18 20:30N 44°02' E 010°02'0 0.5
2017-Oct-18 19:58N 44°02' E 010°02'0 0.0
2017-Oct-18 19:28N 44°02' E 010°02'0 0.0
2017-Oct-18 18:58N 44°02' E 010°02'0 0.0
2017-Oct-18 18:28N 44°02' E 010°02'0 0.0
2017-Oct-18 17:58N 44°02' E 010°02'0 0.0
2017-Oct-18 17:28N 44°02' E 010°02'0 0.0
2017-Oct-18 16:58N 44°02' E 010°02'0 0.0
2017-Oct-18 16:28N 44°02' E 010°02'0 0.0
2017-Oct-18 15:55N 44°02' E 010°02'0 0.0
2017-Oct-18 15:22N 44°02' E 010°02'0 0.0
2017-Oct-18 14:58N 44°02' E 010°02'0 0.0
2017-Oct-18 13:58N 44°02' E 010°02'0 0.0
2017-Oct-18 13:28N 44°02' E 010°02'0 0.0
2017-Oct-18 12:58N 44°02' E 010°02'0 0.0
2017-Oct-18 12:28N 44°02' E 010°02'0 0.0
2017-Oct-18 11:55N 44°02' E 010°02'0 0.0
2017-Oct-18 11:28N 44°02' E 010°02'2 4.4
2017-Oct-18 11:00N 44°01' E 009°60'5 9.9
2017-Oct-18 10:30N 44°01' E 009°53'3 4.9
2017-Oct-18 09:58N 44°03' E 009°51'0 0.0
2017-Oct-18 09:28N 44°03' E 009°51'0 0.0
2017-Oct-18 08:58N 44°03' E 009°51'0 0.0
2017-Oct-18 08:28N 44°03' E 009°51'0 0.0
2017-Oct-18 07:58N 44°03' E 009°51'0 0.0
2017-Oct-18 07:28N 44°03' E 009°51'0 0.0
2017-Oct-18 06:58N 44°03' E 009°51'0 0.0
2017-Oct-18 06:28N 44°03' E 009°51'0 0.0
2017-Oct-18 05:55N 44°03' E 009°51'0 0.0
2017-Oct-18 05:28N 44°03' E 009°51'0 0.0
2017-Oct-18 04:58N 44°03' E 009°51'0 0.0
2017-Oct-18 04:28N 44°03' E 009°51'0 0.0
2017-Oct-18 03:58N 44°03' E 009°51'0 0.0
2017-Oct-18 03:28N 44°03' E 009°51'0 0.0
2017-Oct-18 02:58N 44°03' E 009°51'0 0.0
2017-Oct-18 02:25N 44°03' E 009°51'0 0.0
2017-Oct-18 01:58N 44°03' E 009°51'0 0.0
2017-Oct-18 01:28N 44°03' E 009°51'0 0.0
2017-Oct-18 00:58N 44°03' E 009°51'0 0.0
2017-Oct-18 00:28N 44°03' E 009°51'0 0.0
2017-Oct-17 23:58N 44°03' E 009°51'0 0.0
2017-Oct-17 23:30N 44°03' E 009°51'0 0.0
2017-Oct-17 23:00N 44°03' E 009°51'0 0.0
2017-Oct-17 22:30N 44°03' E 009°51'0 0.0
2017-Oct-17 21:57N 44°03' E 009°51'0 0.0
2017-Oct-17 21:30N 44°03' E 009°51'0 0.0
2017-Oct-17 21:00N 44°03' E 009°51'0 0.0
2017-Oct-17 20:30N 44°03' E 009°51'0 0.0
2017-Oct-17 20:00N 44°03' E 009°51'0 0.0
2017-Oct-17 19:30N 44°03' E 009°51'0 0.0
2017-Oct-17 19:00N 44°03' E 009°51'0 0.0
2017-Oct-17 18:30N 44°03' E 009°51'0 0.0
2017-Oct-17 18:00N 44°03' E 009°51'0 0.0
2017-Oct-17 17:30N 44°03' E 009°51'0 0.1
2017-Oct-17 17:00N 44°03' E 009°51'0 0.0
2017-Oct-17 16:30N 44°03' E 009°51'0 0.0
2017-Oct-17 16:00N 44°03' E 009°51'0 0.0
2017-Oct-17 15:30N 44°03' E 009°51'0 0.0
2017-Oct-17 15:00N 44°03' E 009°51'0 0.0
2017-Oct-17 14:30N 44°03' E 009°51'0 0.0
2017-Oct-17 14:00N 44°03' E 009°51'0 0.0
2017-Oct-17 13:30N 44°03' E 009°51'0 0.0
2017-Oct-17 13:00N 44°03' E 009°51'0 0.0
2017-Oct-17 12:30N 44°03' E 009°51'0 0.0
2017-Oct-17 12:00N 44°03' E 009°51'0 0.0
2017-Oct-17 11:30N 44°03' E 009°51'0 0.1
2017-Oct-17 10:57N 44°03' E 009°51'0 0.1
2017-Oct-17 10:27N 44°03' E 009°51'0 0.0
2017-Oct-17 10:00N 44°03' E 009°51'0 0.0
2017-Oct-17 09:27N 44°03' E 009°51'0 0.0
2017-Oct-17 09:00N 44°03' E 009°51'0 0.0
2017-Oct-17 08:30N 44°03' E 009°51'0 0.0
2017-Oct-17 08:00N 44°03' E 009°51'0 0.0
2017-Oct-17 07:30N 44°03' E 009°51'0 0.0
2017-Oct-17 07:00N 44°03' E 009°51'0 0.0
2017-Oct-17 06:27N 44°03' E 009°51'0 0.0
2017-Oct-17 06:00N 44°03' E 009°51'0 0.0
2017-Oct-17 05:28N 44°03' E 009°51'0 0.0
2017-Oct-17 05:00N 44°03' E 009°51'0 0.0
2017-Oct-17 04:26N 44°03' E 009°51'0 0.0
2017-Oct-17 04:00N 44°03' E 009°51'0 0.0
2017-Oct-17 03:30N 44°03' E 009°51'0 0.0
2017-Oct-17 03:00N 44°03' E 009°51'0 0.0
2017-Oct-17 02:30N 44°03' E 009°51'0 0.0
2017-Oct-17 01:59N 44°03' E 009°51'0 0.0
2017-Oct-17 01:30N 44°03' E 009°51'0 0.0
2017-Oct-17 01:00N 44°03' E 009°51'0 0.0
2017-Oct-17 00:30N 44°03' E 009°51'0 0.0
2017-Oct-17 00:00N 44°03' E 009°51'0 0.0
2017-Oct-16 23:30N 44°03' E 009°51'0 0.0
2017-Oct-16 22:58N 44°03' E 009°51'0 0.0
2017-Oct-16 22:30N 44°03' E 009°51'0 0.0
2017-Oct-16 22:00N 44°03' E 009°51'0 0.0
2017-Oct-16 21:27N 44°03' E 009°51'0 0.0
2017-Oct-16 20:57N 44°03' E 009°51'0 0.0
2017-Oct-16 20:26N 44°03' E 009°51'2 4.5
2017-Oct-16 19:58N 44°02' E 009°53'3 5.9
2017-Oct-16 19:28N 43°59' E 009°53'510.2
2017-Oct-16 19:00N 43°58' E 009°46'5 9.9
2017-Oct-16 18:30N 44°02' E 009°42'510.3
2017-Oct-16 18:00N 44°05' E 009°36'510.5
2017-Oct-16 17:30N 44°09' E 009°31'510.4
2017-Oct-16 17:00N 44°12' E 009°25'510.6
2017-Oct-16 16:30N 44°16' E 009°20'4 0.4
2017-Oct-16 05:29N 44°18' E 009°14'510.3
2017-Oct-16 05:00N 44°14' E 009°09'510.6
2017-Oct-16 04:30N 44°12' E 009°03'510.5
2017-Oct-16 04:00N 44°09' E 008°57'610.4
2017-Oct-16 03:25N 44°06' E 008°49'510.3
2017-Oct-16 02:58N 44°04' E 008°43'810.1
2017-Oct-16 02:13N 44°01' E 008°34'2 9.9
2017-Oct-16 01:59N 43°60' E 008°31'  
Track history (hours):
 
Tides and Currents Weather Stations Pressure Air Temp Water Temp Dewpoint Dewpoint Depression Visibility Wind Speed Wind Dir Waves Ship Positions

Arethusa

Last reported at 2017-Oct-23 02:31 UTC. Time now 2017-Oct-23 02:49 UTC.
Position N 44°02' E 010°02'.

Length 60 m; draft 3 m.

Type: Passenger vessel. MMSI: 249069000.

Date/timePositionNaut miles runAvg speedWind from/ knotsBaromVisibWave heightAir tempDewpointWater temp
2017-Oct-23 02:31N 44°02' E 010°02'0 0.0
2017-Oct-23 02:00N 44°02' E 010°02'0 0.0
2017-Oct-23 01:30N 44°02' E 010°02'0 0.0
2017-Oct-23 01:00N 44°02' E 010°02'0 0.0
2017-Oct-23 00:30N 44°02' E 010°02'0 0.0
2017-Oct-23 00:01N 44°02' E 010°02'0 0.0
2017-Oct-22 23:30N 44°02' E 010°02'0 0.0
2017-Oct-22 23:00N 44°02' E 010°02'0 0.0
2017-Oct-22 22:30N 44°02' E 010°02'0 0.0
2017-Oct-22 22:01N 44°02' E 010°02'0 0.0
2017-Oct-22 21:31N 44°02' E 010°02'0 0.0
2017-Oct-22 21:01N 44°02' E 010°02'0 0.0
2017-Oct-22 20:30N 44°02' E 010°02'0 0.0
2017-Oct-22 20:01N 44°02' E 010°02'0 0.0
2017-Oct-22 19:31N 44°02' E 010°02'0 0.0
2017-Oct-22 19:01N 44°02' E 010°02'0 0.0
2017-Oct-22 18:30N 44°02' E 010°02'0 0.0
2017-Oct-22 18:01N 44°02' E 010°02'0 0.0
2017-Oct-22 17:30N 44°02' E 010°02'0 0.0
2017-Oct-22 17:01N 44°02' E 010°02'0 0.0
2017-Oct-22 16:31N 44°02' E 010°02'0 0.0
2017-Oct-22 16:01N 44°02' E 010°02'0 0.0
2017-Oct-22 15:30N 44°02' E 010°02'0 0.0
2017-Oct-22 15:01N 44°02' E 010°02'0 0.0
2017-Oct-22 14:30N 44°02' E 010°02'0 0.0
2017-Oct-22 14:01N 44°02' E 010°02'0 0.0
2017-Oct-22 13:31N 44°02' E 010°02'0 0.0
2017-Oct-22 13:00N 44°02' E 010°02'0 0.0
2017-Oct-22 12:30N 44°02' E 010°02'0 0.0
2017-Oct-22 12:00N 44°02' E 010°02'0 0.0
2017-Oct-22 11:31N 44°02' E 010°02'0 0.0
2017-Oct-22 11:01N 44°02' E 010°02'0 0.0
2017-Oct-22 10:30N 44°02' E 010°02'0 0.0
2017-Oct-22 09:57N 44°02' E 010°02'0 0.0
2017-Oct-22 09:31N 44°02' E 010°02'0 0.0
2017-Oct-22 09:01N 44°02' E 010°02'0 0.0
2017-Oct-22 08:31N 44°02' E 010°02'0 0.0
2017-Oct-22 08:00N 44°02' E 010°02'0 0.0
2017-Oct-22 07:31N 44°02' E 010°02'0 0.0
2017-Oct-22 07:00N 44°02' E 010°02'0 0.0
2017-Oct-22 06:30N 44°02' E 010°02'0 0.0
2017-Oct-22 06:01N 44°02' E 010°02'0 0.0
2017-Oct-22 05:31N 44°02' E 010°02'0 0.0
2017-Oct-22 05:00N 44°02' E 010°02'0 0.0
2017-Oct-22 04:30N 44°02' E 010°02'0 0.0
2017-Oct-22 04:01N 44°02' E 010°02'0 0.0
2017-Oct-22 03:31N 44°02' E 010°02'0 0.0
2017-Oct-22 02:58N 44°02' E 010°02'0 0.0
2017-Oct-22 02:30N 44°02' E 010°02'0 0.0
2017-Oct-22 02:01N 44°02' E 010°02'0 0.0
2017-Oct-22 01:31N 44°02' E 010°02'0 0.0
2017-Oct-22 01:00N 44°02' E 010°02'0 0.0
2017-Oct-22 00:31N 44°02' E 010°02'0 0.0
2017-Oct-22 00:00N 44°02' E 010°02'0 0.0
2017-Oct-21 23:31N 44°02' E 010°02'0 0.0
2017-Oct-21 23:00N 44°02' E 010°02'0 0.0
2017-Oct-21 22:30N 44°02' E 010°02'0 0.0
2017-Oct-21 22:01N 44°02' E 010°02'0 0.0
2017-Oct-21 21:31N 44°02' E 010°02'0 0.0
2017-Oct-21 21:00N 44°02' E 010°02'0 0.0
2017-Oct-21 20:31N 44°02' E 010°02'0 0.0
2017-Oct-21 20:00N 44°02' E 010°02'0 0.0
2017-Oct-21 19:31N 44°02' E 010°02'1 1.2
2017-Oct-21 19:01N 44°02' E 010°03'510.0
2017-Oct-21 18:31N 43°57' E 010°03'510.2
2017-Oct-21 18:00N 43°51' E 010°03'510.0
2017-Oct-21 17:30N 43°46' E 010°04'5 9.7
2017-Oct-21 17:01N 43°42' E 010°04'5 9.7
2017-Oct-21 16:31N 43°37' E 010°05'510.1
2017-Oct-21 16:01N 43°32' E 010°05'4 8.5
2017-Oct-21 15:29N 43°31' E 010°11'5 9.7
2017-Oct-21 15:01N 43°32' E 010°17'1 1.8
2017-Oct-21 14:27N 43°33' E 010°18'0 0.0
2017-Oct-21 13:30N 43°33' E 010°18'0 0.0
2017-Oct-21 13:00N 43°33' E 010°18'0 0.0
2017-Oct-21 12:30N 43°33' E 010°18'0 0.0
2017-Oct-21 12:00N 43°33' E 010°18'0 0.0
2017-Oct-21 11:30N 43°33' E 010°18'0 0.0
2017-Oct-21 11:00N 43°33' E 010°18'0 0.0
2017-Oct-21 10:30N 43°33' E 010°18'0 0.0
2017-Oct-21 10:00N 43°33' E 010°18'0 0.0
2017-Oct-21 09:30N 43°33' E 010°18'0 0.0
2017-Oct-21 09:00N 43°33' E 010°18'0 0.0
2017-Oct-21 08:30N 43°33' E 010°18'0 0.0
2017-Oct-21 08:00N 43°33' E 010°18'0 0.0
2017-Oct-21 07:30N 43°33' E 010°18'0 0.0
2017-Oct-21 07:00N 43°33' E 010°18'0 0.0
2017-Oct-21 06:30N 43°33' E 010°18'0 0.0
2017-Oct-21 06:00N 43°33' E 010°18'0 0.0
2017-Oct-21 05:30N 43°33' E 010°18'0 0.0
2017-Oct-21 05:00N 43°33' E 010°18'0 0.0
2017-Oct-21 04:30N 43°33' E 010°18'0 0.0
2017-Oct-21 03:57N 43°33' E 010°18'0 0.0
2017-Oct-21 03:30N 43°33' E 010°18'0 0.0
2017-Oct-21 03:00N 43°33' E 010°18'0 0.0
2017-Oct-21 02:30N 43°33' E 010°18'0 0.0
2017-Oct-21 02:00N 43°33' E 010°18'0 0.0
2017-Oct-21 01:30N 43°33' E 010°18'0 0.0
2017-Oct-21 01:00N 43°33' E 010°18'0 0.0
2017-Oct-21 00:30N 43°33' E 010°18'0 0.0
2017-Oct-20 23:57N 43°33' E 010°18'0 0.0
2017-Oct-20 23:27N 43°33' E 010°18'0 0.0
2017-Oct-20 23:00N 43°33' E 010°18'0 0.0
2017-Oct-20 22:30N 43°33' E 010°18'0 0.0
2017-Oct-20 22:00N 43°33' E 010°18'0 0.0
2017-Oct-20 21:30N 43°33' E 010°18'0 0.0
2017-Oct-20 20:48N 43°33' E 010°18'0 0.7
2017-Oct-20 20:31N 43°33' E 010°18'3 5.7
2017-Oct-20 20:00N 43°31' E 010°15'5 9.8
2017-Oct-20 19:30N 43°26' E 010°15'510.4
2017-Oct-20 19:00N 43°21' E 010°15'510.3
2017-Oct-20 18:30N 43°16' E 010°16'510.4
2017-Oct-20 18:00N 43°11' E 010°17'710.4
2017-Oct-20 17:19N 43°04' E 010°19'310.4
2017-Oct-20 17:00N 43°00' E 010°19'12 0.7
2017-Oct-20 00:12N 42°49' E 010°20'0 0.0
2017-Oct-19 23:45N 42°49' E 010°20'0 0.1
2017-Oct-19 23:18N 42°48' E 010°20'0 0.1
2017-Oct-19 23:00N 42°48' E 010°20'0 0.0
2017-Oct-19 22:30N 42°48' E 010°20'0 0.0
2017-Oct-19 22:00N 42°48' E 010°20'0 0.0
2017-Oct-19 21:27N 42°48' E 010°20'0 0.0
2017-Oct-19 20:53N 42°48' E 010°20'0 0.0
2017-Oct-19 20:28N 42°48' E 010°20'0 0.0
2017-Oct-19 19:46N 42°48' E 010°20'1 1.8
2017-Oct-19 19:26N 42°49' E 010°21'5 8.8
2017-Oct-19 18:53N 42°51' E 010°15'34 2.0
2017-Oct-19 01:33N 43°14' E 009°40'1 9.7
2017-Oct-19 01:30N 43°14' E 009°40'5 9.7
2017-Oct-19 01:00N 43°19' E 009°42'510.0
2017-Oct-19 00:30N 43°24' E 009°44'510.1
2017-Oct-19 00:00N 43°28' E 009°46'510.1
2017-Oct-18 23:30N 43°33' E 009°48'510.2
2017-Oct-18 23:00N 43°38' E 009°50'510.2
2017-Oct-18 22:30N 43°43' E 009°53'510.3
2017-Oct-18 22:00N 43°47' E 009°56'510.6
2017-Oct-18 21:30N 43°52' E 009°58'510.4
2017-Oct-18 21:00N 43°57' E 010°01'5 9.4
2017-Oct-18 20:30N 44°02' E 010°02'0 0.5
2017-Oct-18 19:58N 44°02' E 010°02'0 0.0
2017-Oct-18 19:28N 44°02' E 010°02'0 0.0
2017-Oct-18 18:58N 44°02' E 010°02'0 0.0
2017-Oct-18 18:28N 44°02' E 010°02'0 0.0
2017-Oct-18 17:58N 44°02' E 010°02'0 0.0
2017-Oct-18 17:28N 44°02' E 010°02'0 0.0
2017-Oct-18 16:58N 44°02' E 010°02'0 0.0
2017-Oct-18 16:28N 44°02' E 010°02'0 0.0
2017-Oct-18 15:55N 44°02' E 010°02'0 0.0
2017-Oct-18 15:22N 44°02' E 010°02'0 0.0
2017-Oct-18 14:58N 44°02' E 010°02'0 0.0
2017-Oct-18 13:58N 44°02' E 010°02'0 0.0
2017-Oct-18 13:28N 44°02' E 010°02'0 0.0
2017-Oct-18 12:58N 44°02' E 010°02'0 0.0
2017-Oct-18 12:28N 44°02' E 010°02'0 0.0
2017-Oct-18 11:55N 44°02' E 010°02'0 0.0
2017-Oct-18 11:28N 44°02' E 010°02'2 4.4
2017-Oct-18 11:00N 44°01' E 009°60'5 9.9
2017-Oct-18 10:30N 44°01' E 009°53'3 4.9
2017-Oct-18 09:58N 44°03' E 009°51'0 0.0
2017-Oct-18 09:28N 44°03' E 009°51'0 0.0
2017-Oct-18 08:58N 44°03' E 009°51'0 0.0
2017-Oct-18 08:28N 44°03' E 009°51'0 0.0
2017-Oct-18 07:58N 44°03' E 009°51'0 0.0
2017-Oct-18 07:28N 44°03' E 009°51'0 0.0
2017-Oct-18 06:58N 44°03' E 009°51'0 0.0
2017-Oct-18 06:28N 44°03' E 009°51'0 0.0
2017-Oct-18 05:55N 44°03' E 009°51'0 0.0
2017-Oct-18 05:28N 44°03' E 009°51'0 0.0
2017-Oct-18 04:58N 44°03' E 009°51'0 0.0
2017-Oct-18 04:28N 44°03' E 009°51'0 0.0
2017-Oct-18 03:58N 44°03' E 009°51'0 0.0
2017-Oct-18 03:28N 44°03' E 009°51'0 0.0
2017-Oct-18 02:58N 44°03' E 009°51'0 0.0
2017-Oct-18 02:25N 44°03' E 009°51'0 0.0
2017-Oct-18 01:58N 44°03' E 009°51'0 0.0
2017-Oct-18 01:28N 44°03' E 009°51'0 0.0
2017-Oct-18 00:58N 44°03' E 009°51'0 0.0
2017-Oct-18 00:28N 44°03' E 009°51'0 0.0
2017-Oct-17 23:58N 44°03' E 009°51'0 0.0
2017-Oct-17 23:30N 44°03' E 009°51'0 0.0
2017-Oct-17 23:00N 44°03' E 009°51'0 0.0
2017-Oct-17 22:30N 44°03' E 009°51'0 0.0
2017-Oct-17 21:57N 44°03' E 009°51'0 0.0
2017-Oct-17 21:30N 44°03' E 009°51'0 0.0
2017-Oct-17 21:00N 44°03' E 009°51'0 0.0
2017-Oct-17 20:30N 44°03' E 009°51'0 0.0
2017-Oct-17 20:00N 44°03' E 009°51'0 0.0
2017-Oct-17 19:30N 44°03' E 009°51'0 0.0
2017-Oct-17 19:00N 44°03' E 009°51'0 0.0
2017-Oct-17 18:30N 44°03' E 009°51'0 0.0
2017-Oct-17 18:00N 44°03' E 009°51'0 0.0
2017-Oct-17 17:30N 44°03' E 009°51'0 0.1
2017-Oct-17 17:00N 44°03' E 009°51'0 0.0
2017-Oct-17 16:30N 44°03' E 009°51'0 0.0
2017-Oct-17 16:00N 44°03' E 009°51'0 0.0
2017-Oct-17 15:30N 44°03' E 009°51'0 0.0
2017-Oct-17 15:00N 44°03' E 009°51'0 0.0
2017-Oct-17 14:30N 44°03' E 009°51'0 0.0
2017-Oct-17 14:00N 44°03' E 009°51'0 0.0
2017-Oct-17 13:30N 44°03' E 009°51'0 0.0
2017-Oct-17 13:00N 44°03' E 009°51'0 0.0
2017-Oct-17 12:30N 44°03' E 009°51'0 0.0
2017-Oct-17 12:00N 44°03' E 009°51'0 0.0
2017-Oct-17 11:30N 44°03' E 009°51'0 0.1
2017-Oct-17 10:57N 44°03' E 009°51'0 0.1
2017-Oct-17 10:27N 44°03' E 009°51'0 0.0
2017-Oct-17 10:00N 44°03' E 009°51'0 0.0
2017-Oct-17 09:27N 44°03' E 009°51'0 0.0
2017-Oct-17 09:00N 44°03' E 009°51'0 0.0
2017-Oct-17 08:30N 44°03' E 009°51'0 0.0
2017-Oct-17 08:00N 44°03' E 009°51'0 0.0
2017-Oct-17 07:30N 44°03' E 009°51'0 0.0
2017-Oct-17 07:00N 44°03' E 009°51'0 0.0
2017-Oct-17 06:27N 44°03' E 009°51'0 0.0
2017-Oct-17 06:00N 44°03' E 009°51'0 0.0
2017-Oct-17 05:28N 44°03' E 009°51'0 0.0
2017-Oct-17 05:00N 44°03' E 009°51'0 0.0
2017-Oct-17 04:26N 44°03' E 009°51'0 0.0
2017-Oct-17 04:00N 44°03' E 009°51'0 0.0
2017-Oct-17 03:30N 44°03' E 009°51'0 0.0
2017-Oct-17 03:00N 44°03' E 009°51'0 0.0
2017-Oct-17 02:30N 44°03' E 009°51'0 0.0
2017-Oct-17 01:59N 44°03' E 009°51'0 0.0
2017-Oct-17 01:30N 44°03' E 009°51'0 0.0
2017-Oct-17 01:00N 44°03' E 009°51'0 0.0
2017-Oct-17 00:30N 44°03' E 009°51'0 0.0
2017-Oct-17 00:00N 44°03' E 009°51'0 0.0
2017-Oct-16 23:30N 44°03' E 009°51'0 0.0
2017-Oct-16 22:58N 44°03' E 009°51'0 0.0
2017-Oct-16 22:30N 44°03' E 009°51'0 0.0
2017-Oct-16 22:00N 44°03' E 009°51'0 0.0
2017-Oct-16 21:27N 44°03' E 009°51'0 0.0
2017-Oct-16 20:57N 44°03' E 009°51'0 0.0
2017-Oct-16 20:26N 44°03' E 009°51'2 4.5
2017-Oct-16 19:58N 44°02' E 009°53'3 5.9
2017-Oct-16 19:28N 43°59' E 009°53'510.2
2017-Oct-16 19:00N 43°58' E 009°46'5 9.9
2017-Oct-16 18:30N 44°02' E 009°42'510.3
2017-Oct-16 18:00N 44°05' E 009°36'510.5
2017-Oct-16 17:30N 44°09' E 009°31'510.4
2017-Oct-16 17:00N 44°12' E 009°25'510.6
2017-Oct-16 16:30N 44°16' E 009°20'4 0.4
2017-Oct-16 05:29N 44°18' E 009°14'510.3
2017-Oct-16 05:00N 44°14' E 009°09'510.6
2017-Oct-16 04:30N 44°12' E 009°03'510.5
2017-Oct-16 04:00N 44°09' E 008°57'610.4
2017-Oct-16 03:25N 44°06' E 008°49'510.3
2017-Oct-16 02:58N 44°04' E 008°43'810.1
2017-Oct-16 02:13N 44°01' E 008°34'2 9.9
2017-Oct-16 01:59N 43°60' E 008°31'  

Dump ship's entire track history